Time;durP1;ratioP1;P1;durP2;ratioP2;P2;SDS_P1;SDS_P2;PMS_P1;PMS_P2;Temp;Humidity;BMP_temperature;BMP_pressure;BME280_temperature;BME280_humidity;BME280_pressure;Samples;Min_cycle;Max_cycle;Signal;HPM_P1;HPM_P2
2024/03/07 00:00:21;;;;;;;10.77;9.03;;;4.90;99.90;;;;;;4898572;29;20659;-84
2024/03/07 00:02:50;;;;;;;11.60;9.10;;;4.80;99.90;;;;;;4894833;29;20235;-84
2024/03/07 00:05:17;;;;;;;12.23;10.10;;;4.80;99.90;;;;;;4888423;29;20203;-85
2024/03/07 00:07:46;;;;;;;10.07;9.03;;;4.90;99.90;;;;;;4898407;29;20586;-84
2024/03/07 00:10:15;;;;;;;11.47;9.73;;;4.90;99.90;;;;;;4898419;29;20207;-83
2024/03/07 00:12:42;;;;;;;13.53;9.53;;;4.90;99.90;;;;;;4900658;29;20321;-83
2024/03/07 00:15:10;;;;;;;11.33;9.23;;;5.10;99.90;;;;;;4901986;29;20206;-84
2024/03/07 00:17:37;;;;;;;11.17;9.53;;;5.00;99.90;;;;;;4896410;29;20213;-84
2024/03/07 00:20:08;;;;;;;12.37;10.23;;;4.90;99.90;;;;;;4897238;29;20222;-84
2024/03/07 00:22:35;;;;;;;12.87;9.93;;;5.00;99.90;;;;;;4895529;29;20218;-84
2024/03/07 00:25:04;;;;;;;11.37;9.40;;;4.90;99.90;;;;;;4890591;29;20211;-84
2024/03/07 00:27:30;;;;;;;11.20;9.83;;;4.80;99.90;;;;;;4896158;29;20573;-84
2024/03/07 00:29:57;;;;;;;13.00;10.53;;;4.80;99.90;;;;;;4897606;29;20203;-83
2024/03/07 00:32:24;;;;;;;12.30;10.40;;;4.80;99.90;;;;;;4899261;29;20212;-83
2024/03/07 00:34:51;;;;;;;13.10;10.60;;;4.80;99.90;;;;;;4895453;29;20220;-84
2024/03/07 00:37:18;;;;;;;13.33;10.80;;;4.70;99.90;;;;;;4896723;29;20195;-84
2024/03/07 00:39:45;;;;;;;12.63;10.67;;;4.80;99.90;;;;;;4894479;29;20703;-85
2024/03/07 00:42:13;;;;;;;13.47;11.30;;;4.70;99.90;;;;;;4894362;29;20214;-84
2024/03/07 00:44:40;;;;;;;13.50;11.20;;;4.80;99.90;;;;;;4897493;29;20655;-84
2024/03/07 00:47:07;;;;;;;14.47;11.63;;;4.80;99.90;;;;;;4898172;29;20294;-83
2024/03/07 00:49:36;;;;;;;16.77;12.60;;;4.80;99.90;;;;;;4895285;29;20232;-83
2024/03/07 00:52:03;;;;;;;15.63;12.07;;;4.70;99.90;;;;;;4897192;29;20204;-83
2024/03/07 00:54:30;;;;;;;16.63;12.80;;;4.70;99.90;;;;;;4899185;29;20298;-84
2024/03/07 00:56:57;;;;;;;17.30;12.97;;;4.70;99.90;;;;;;4908714;29;20222;-84
2024/03/07 00:59:25;;;;;;;18.67;13.73;;;4.80;99.90;;;;;;4899716;29;20211;-83
2024/03/07 01:01:52;;;;;;;18.33;13.43;;;4.70;99.90;;;;;;4903530;29;20203;-83
2024/03/07 01:04:19;;;;;;;20.87;13.50;;;4.70;99.90;;;;;;4899344;29;20295;-84
2024/03/07 01:06:46;;;;;;;20.17;13.97;;;4.70;99.90;;;;;;4897059;29;20213;-83
2024/03/07 01:09:16;;;;;;;19.37;13.47;;;4.70;99.90;;;;;;4895301;29;20214;-84
2024/03/07 01:11:44;;;;;;;20.33;14.07;;;4.70;99.90;;;;;;4896696;29;20208;-84
2024/03/07 01:14:11;;;;;;;20.67;14.00;;;4.80;99.90;;;;;;4898712;29;20227;-84
2024/03/07 01:16:39;;;;;;;21.23;14.27;;;4.70;99.90;;;;;;4907261;29;20737;-83
2024/03/07 01:19:06;;;;;;;20.80;14.30;;;4.70;99.90;;;;;;4902443;29;20203;-83
2024/03/07 01:21:34;;;;;;;20.83;14.27;;;4.60;99.90;;;;;;4903719;29;20758;-83
2024/03/07 01:24:01;;;;;;;21.67;14.73;;;4.80;99.90;;;;;;4898036;29;20199;-84
2024/03/07 01:26:28;;;;;;;22.57;14.97;;;4.80;99.90;;;;;;4894815;29;20204;-85
2024/03/07 01:28:56;;;;;;;21.50;14.30;;;4.70;99.90;;;;;;4902639;29;20210;-84
2024/03/07 01:31:26;;;;;;;24.10;15.67;;;4.70;99.90;;;;;;4900257;29;20237;-84
2024/03/07 01:33:55;;;;;;;20.67;14.60;;;4.70;99.90;;;;;;4899688;29;20231;-83
2024/03/07 01:36:22;;;;;;;22.30;14.93;;;4.70;99.90;;;;;;4895190;29;20274;-83
2024/03/07 01:38:49;;;;;;;20.23;14.33;;;4.70;99.90;;;;;;4894585;29;20235;-83
2024/03/07 01:41:18;;;;;;;22.13;15.33;;;4.60;99.90;;;;;;4906465;29;20195;-83
2024/03/07 01:43:44;;;;;;;21.47;15.17;;;4.70;99.90;;;;;;4898092;29;20266;-84
2024/03/07 01:46:12;;;;;;;24.77;15.57;;;4.60;99.90;;;;;;4898069;29;20221;-84
2024/03/07 01:48:40;;;;;;;22.03;15.43;;;4.70;99.90;;;;;;4909244;29;20207;-83
2024/03/07 01:51:08;;;;;;;22.37;15.37;;;4.70;99.90;;;;;;4899623;29;20235;-84
2024/03/07 01:53:35;;;;;;;22.50;15.30;;;4.80;99.90;;;;;;4902054;29;20275;-83
2024/03/07 01:56:04;;;;;;;23.20;15.47;;;4.90;99.90;;;;;;4897713;29;20234;-86
2024/03/07 01:58:32;;;;;;;24.10;14.90;;;5.00;99.90;;;;;;4896735;29;20209;-84
2024/03/07 02:00:59;;;;;;;24.10;16.27;;;5.00;99.90;;;;;;4884742;29;20294;-84
2024/03/07 02:03:26;;;;;;;26.23;16.10;;;5.10;99.90;;;;;;4901177;29;20221;-84
2024/03/07 02:05:53;;;;;;;23.10;15.07;;;5.00;99.90;;;;;;4894319;29;20199;-84
2024/03/07 02:08:23;;;;;;;25.97;16.50;;;5.00;99.90;;;;;;4895100;29;20246;-84
2024/03/07 02:10:50;;;;;;;23.63;15.60;;;4.90;99.90;;;;;;4896237;29;20214;-88
2024/03/07 02:13:17;;;;;;;24.13;16.20;;;4.80;99.90;;;;;;4895202;29;20666;-83
2024/03/07 02:15:44;;;;;;;25.43;17.27;;;4.80;99.90;;;;;;4897466;29;20216;-84
2024/03/07 02:18:11;;;;;;;24.33;16.80;;;4.70;99.90;;;;;;4894842;29;20203;-83
2024/03/07 02:20:38;;;;;;;25.00;16.83;;;4.70;99.90;;;;;;4896934;29;20214;-84
2024/03/07 02:23:07;;;;;;;24.57;16.83;;;4.80;99.90;;;;;;4896346;29;20239;-84
2024/03/07 02:25:37;;;;;;;25.83;17.10;;;4.80;99.90;;;;;;4894969;29;20618;-84
2024/03/07 02:28:04;;;;;;;27.07;17.00;;;4.90;99.90;;;;;;4896380;29;20710;-84
2024/03/07 02:30:32;;;;;;;24.03;17.17;;;5.00;99.90;;;;;;4887550;29;20672;-83
2024/03/07 02:33:06;;;;;;;25.13;16.80;;;5.00;99.90;;;;;;4895529;29;20231;-84
2024/03/07 02:35:33;;;;;;;24.33;17.20;;;5.00;99.90;;;;;;4888010;29;20250;-83
2024/03/07 02:38:00;;;;;;;25.97;16.93;;;5.10;99.90;;;;;;4895992;29;20248;-85
2024/03/07 02:40:28;;;;;;;25.00;17.73;;;5.10;99.90;;;;;;4896814;29;20213;-84
2024/03/07 02:42:55;;;;;;;26.30;17.37;;;5.10;99.90;;;;;;4896752;29;20200;-88
2024/03/07 02:45:22;;;;;;;26.13;17.77;;;5.20;99.90;;;;;;4895403;29;20259;-84
2024/03/07 02:47:49;;;;;;;27.83;18.03;;;5.20;99.90;;;;;;4891846;29;20655;-83
2024/03/07 02:50:16;;;;;;;26.77;18.60;;;5.20;99.90;;;;;;4899007;29;20218;-83
2024/03/07 02:52:43;;;;;;;27.53;19.10;;;5.20;99.90;;;;;;4897249;29;20211;-85
2024/03/07 02:55:10;;;;;;;27.17;19.50;;;5.10;99.90;;;;;;4895419;29;20230;-84
2024/03/07 02:57:39;;;;;;;28.23;19.83;;;5.20;99.90;;;;;;4900539;29;20231;-84
2024/03/07 03:00:19;;;;;;;29.60;19.77;;;5.20;99.90;;;;;;4905464;29;20615;-83
2024/03/07 03:02:46;;;;;;;27.33;19.03;;;5.10;99.90;;;;;;4906177;29;20255;-84
2024/03/07 03:05:13;;;;;;;25.97;18.20;;;5.10;99.90;;;;;;4907488;29;20693;-84
2024/03/07 03:07:42;;;;;;;28.92;18.83;;;5.20;99.90;;;;;;4900772;29;20196;-84
2024/03/07 03:10:10;;;;;;;30.37;21.87;;;5.10;99.90;;;;;;4894005;29;20208;-83
2024/03/07 03:12:39;;;;;;;33.37;22.87;;;5.00;99.90;;;;;;4900646;29;20211;-84
2024/03/07 03:15:07;;;;;;;34.97;24.00;;;5.10;99.90;;;;;;4899924;29;20230;-84
2024/03/07 03:17:36;;;;;;;34.50;23.93;;;5.10;99.90;;;;;;4899381;29;20212;-84
2024/03/07 03:20:04;;;;;;;35.70;24.03;;;5.10;99.90;;;;;;4906644;29;20674;-87
2024/03/07 03:22:31;;;;;;;38.77;25.10;;;5.10;99.90;;;;;;4904061;29;20203;-86
2024/03/07 03:24:58;;;;;;;34.13;23.37;;;5.10;99.90;;;;;;4895036;29;20242;-84
2024/03/07 03:27:25;;;;;;;36.97;25.00;;;5.00;99.90;;;;;;4895455;29;20206;-85
2024/03/07 03:29:53;;;;;;;34.83;24.00;;;5.10;99.90;;;;;;4901756;29;20208;-84
2024/03/07 03:32:20;;;;;;;36.63;23.93;;;5.00;99.90;;;;;;4894348;29;20675;-84
2024/03/07 03:34:46;;;;;;;36.37;25.83;;;5.00;99.90;;;;;;4900258;29;20226;-84
2024/03/07 03:37:13;;;;;;;38.70;25.47;;;4.90;99.90;;;;;;4899005;29;20563;-84
2024/03/07 03:39:42;;;;;;;37.97;24.87;;;4.90;99.90;;;;;;4900086;29;20290;-83
2024/03/07 03:42:09;;;;;;;37.87;25.73;;;4.90;99.90;;;;;;4909494;29;20262;-84
2024/03/07 03:44:36;;;;;;;39.40;25.50;;;4.90;99.90;;;;;;4896622;29;20247;-84
2024/03/07 03:47:05;;;;;;;40.13;25.90;;;5.00;99.90;;;;;;4894823;29;20210;-84
2024/03/07 03:49:31;;;;;;;38.43;26.87;;;5.00;99.90;;;;;;4897021;29;20208;-83
2024/03/07 03:51:59;;;;;;;38.03;25.10;;;4.90;99.90;;;;;;4907365;29;20202;-84
2024/03/07 03:54:26;;;;;;;40.87;25.83;;;4.90;99.90;;;;;;4903840;29;20222;-83
2024/03/07 03:56:53;;;;;;;42.47;25.77;;;4.90;99.90;;;;;;4905988;29;20345;-84
2024/03/07 03:59:19;;;;;;;37.97;26.30;;;4.90;99.90;;;;;;4909212;29;20207;-84
2024/03/07 04:01:48;;;;;;;37.40;25.03;;;4.80;99.90;;;;;;4899777;29;20206;-84
2024/03/07 04:04:16;;;;;;;37.90;25.47;;;4.90;99.90;;;;;;4898884;29;20203;-84
2024/03/07 04:06:42;;;;;;;40.80;25.87;;;5.00;99.90;;;;;;4900924;29;20215;-84
2024/03/07 04:09:09;;;;;;;35.97;25.23;;;5.00;99.90;;;;;;4896859;29;20214;-84
2024/03/07 04:11:36;;;;;;;42.50;26.70;;;5.00;99.90;;;;;;4899717;29;20295;-84
2024/03/07 04:14:04;;;;;;;39.03;25.50;;;4.90;99.90;;;;;;4900046;29;20231;-83
2024/03/07 04:16:31;;;;;;;46.37;27.67;;;4.80;99.90;;;;;;4899974;29;20210;-83
2024/03/07 04:18:57;;;;;;;39.40;25.70;;;4.80;99.90;;;;;;4899662;29;20207;-85
2024/03/07 04:21:26;;;;;;;41.10;26.70;;;4.70;99.90;;;;;;4895884;29;20200;-84
2024/03/07 04:23:53;;;;;;;40.87;27.03;;;4.70;99.90;;;;;;4898852;29;20215;-83
2024/03/07 04:26:19;;;;;;;35.43;24.80;;;4.90;99.90;;;;;;4898857;29;20452;-84
2024/03/07 04:28:48;;;;;;;39.37;26.30;;;5.00;99.90;;;;;;4896748;29;20211;-86
2024/03/07 04:31:14;;;;;;;38.67;26.00;;;5.10;99.90;;;;;;4893614;29;20209;-85
2024/03/07 04:33:41;;;;;;;38.83;27.00;;;5.20;99.90;;;;;;4898935;29;20203;-84
2024/03/07 04:36:08;;;;;;;39.43;27.87;;;5.10;99.90;;;;;;4899398;29;20210;-83
2024/03/07 04:38:36;;;;;;;39.63;26.70;;;4.90;99.90;;;;;;4912447;29;20305;-83
2024/03/07 04:41:03;;;;;;;41.30;28.20;;;4.80;99.90;;;;;;4902506;29;20215;-84
2024/03/07 04:43:31;;;;;;;37.83;27.67;;;4.70;99.90;;;;;;4898297;29;20203;-83
2024/03/07 04:45:57;;;;;;;43.87;27.27;;;4.90;99.90;;;;;;4896967;29;20290;-83
2024/03/07 04:48:24;;;;;;;43.23;27.80;;;4.80;99.90;;;;;;4899182;29;20673;-85
2024/03/07 04:50:51;;;;;;;46.40;29.03;;;4.70;99.90;;;;;;4899223;29;20291;-83
2024/03/07 04:53:18;;;;;;;40.70;26.90;;;4.70;99.90;;;;;;4899038;29;20366;-84
2024/03/07 04:55:46;;;;;;;42.03;28.30;;;4.70;99.90;;;;;;4892747;29;20238;-84
2024/03/07 04:58:13;;;;;;;43.50;27.97;;;4.60;99.90;;;;;;4898101;29;20234;-84
2024/03/07 05:00:39;;;;;;;43.50;29.23;;;4.60;99.90;;;;;;4899159;29;20211;-84
2024/03/07 05:03:06;;;;;;;44.53;29.53;;;4.60;99.90;;;;;;4890508;29;20199;-84
2024/03/07 05:05:33;;;;;;;42.80;29.40;;;4.60;99.90;;;;;;4898315;29;20207;-84
2024/03/07 05:08:00;;;;;;;43.60;29.13;;;4.60;99.90;;;;;;4897237;29;20210;-84
2024/03/07 05:10:29;;;;;;;47.03;29.33;;;4.50;99.90;;;;;;4899501;29;20229;-85
2024/03/07 05:12:58;;;;;;;45.20;29.30;;;4.60;99.90;;;;;;4897259;29;20701;-83
2024/03/07 05:15:25;;;;;;;40.20;28.17;;;4.60;99.90;;;;;;4891442;29;20250;-84
2024/03/07 05:17:52;;;;;;;47.10;30.33;;;4.60;99.90;;;;;;4897970;29;20207;-84
2024/03/07 05:20:19;;;;;;;44.53;30.07;;;4.60;99.90;;;;;;4897465;29;20200;-85
2024/03/07 05:22:50;;;;;;;43.40;29.33;;;4.60;99.90;;;;;;4900954;29;20238;-86
2024/03/07 05:25:18;;;;;;;44.30;29.33;;;4.50;99.90;;;;;;4897312;29;20207;-84
2024/03/07 05:27:45;;;;;;;45.07;29.80;;;4.40;99.90;;;;;;4892104;29;20860;-84
2024/03/07 05:30:15;;;;;;;46.80;30.10;;;4.40;99.90;;;;;;4899450;29;20191;-84
2024/03/07 05:36:14;;;;;;;44.47;30.07;;;4.30;99.90;;;;;;4902491;29;20231;-84
2024/03/07 05:38:43;;;;;;;45.17;29.80;;;4.40;99.90;;;;;;4898057;29;20620;-86
2024/03/07 05:41:10;;;;;;;46.10;30.20;;;4.50;99.90;;;;;;4899596;29;20676;-84
2024/03/07 05:43:37;;;;;;;43.13;29.97;;;4.40;99.90;;;;;;4896878;29;20206;-85
2024/03/07 05:46:06;;;;;;;44.03;29.37;;;4.40;99.90;;;;;;4896904;29;20546;-84
2024/03/07 05:48:34;;;;;;;45.73;30.00;;;4.30;99.90;;;;;;4894281;29;20200;-84
2024/03/07 05:51:02;;;;;;;43.33;29.87;;;4.30;99.90;;;;;;4894460;29;20203;-84
2024/03/07 05:53:29;;;;;;;42.60;28.90;;;4.30;99.90;;;;;;4897925;29;20555;-84
2024/03/07 05:58:24;;;;;;;49.67;29.83;;;4.40;99.90;;;;;;5603203;23;21100;-84
2024/03/07 06:00:51;;;;;;;45.03;29.13;;;4.40;99.90;;;;;;4895254;29;20211;-86
2024/03/07 06:03:20;;;;;;;45.03;29.20;;;4.30;99.90;;;;;;4892528;29;20206;-83
2024/03/07 06:05:48;;;;;;;48.20;30.53;;;4.30;99.90;;;;;;4896013;29;20276;-83
2024/03/07 06:08:16;;;;;;;48.17;30.40;;;4.20;99.90;;;;;;4895477;29;20207;-83
2024/03/07 06:10:43;;;;;;;47.80;29.90;;;4.10;99.90;;;;;;4894257;29;20200;-83
2024/03/07 06:13:10;;;;;;;49.87;31.20;;;4.00;99.90;;;;;;4896020;29;20203;-83
2024/03/07 06:15:39;;;;;;;53.27;30.90;;;4.10;99.90;;;;;;4894411;29;20279;-84
2024/03/07 06:18:06;;;;;;;45.90;30.87;;;4.10;99.90;;;;;;4894477;29;20256;-85
2024/03/07 06:20:36;;;;;;;45.83;30.30;;;4.10;99.90;;;;;;4894120;29;20211;-83
2024/03/07 06:23:04;;;;;;;48.97;31.80;;;4.20;99.90;;;;;;4887949;29;20210;-84
2024/03/07 06:25:36;;;;;;;49.47;32.13;;;4.10;99.90;;;;;;4895431;29;20577;-83
2024/03/07 06:28:08;;;;;;;48.33;31.43;;;4.10;99.90;;;;;;4894131;29;20223;-83
2024/03/07 06:30:36;;;;;;;53.60;31.23;;;4.10;99.90;;;;;;4895655;29;20203;-86
2024/03/07 06:33:04;;;;;;;49.00;31.03;;;4.10;99.90;;;;;;4893156;29;20625;-85
2024/03/07 06:35:31;;;;;;;49.53;30.67;;;4.20;99.90;;;;;;4896049;29;20227;-83
2024/03/07 06:37:59;;;;;;;48.30;30.93;;;4.20;99.90;;;;;;4892423;29;20662;-84
2024/03/07 06:40:25;;;;;;;44.63;30.73;;;4.20;99.90;;;;;;4890205;29;20199;-83
2024/03/07 06:42:52;;;;;;;47.30;29.57;;;4.20;99.90;;;;;;4898570;29;20211;-84
2024/03/07 06:45:19;;;;;;;43.33;29.53;;;4.30;99.90;;;;;;4897340;29;20679;-84
2024/03/07 06:47:47;;;;;;;47.53;30.23;;;4.30;99.40;;;;;;4899148;29;20207;-83
2024/03/07 06:50:17;;;;;;;45.83;30.97;;;4.40;99.20;;;;;;4898405;29;20251;-83
2024/03/07 06:52:44;;;;;;;46.20;30.10;;;4.50;99.00;;;;;;4900947;29;20575;-84
2024/03/07 06:55:12;;;;;;;45.03;30.77;;;4.60;98.70;;;;;;4897130;29;20679;-84
2024/03/07 06:57:39;;;;;;;48.87;32.23;;;4.60;98.50;;;;;;4879413;29;20259;-83
2024/03/07 07:00:10;;;;;;;45.07;30.20;;;4.60;98.40;;;;;;4878813;29;20219;-83
2024/03/07 07:02:38;;;;;;;47.07;30.10;;;4.60;99.10;;;;;;4873008;29;20231;-83
2024/03/07 07:05:10;;;;;;;44.60;30.33;;;4.80;98.50;;;;;;4880058;29;20208;-83
2024/03/07 07:07:37;;;;;;;47.67;31.17;;;5.00;98.00;;;;;;4880404;29;20235;-84
2024/03/07 07:10:08;;;;;;;50.47;29.67;;;4.90;97.40;;;;;;4879926;29;20582;-83
2024/03/07 07:12:36;;;;;;;43.80;29.37;;;4.80;97.00;;;;;;4880318;29;20201;-83
2024/03/07 07:15:04;;;;;;;47.30;29.63;;;4.80;97.00;;;;;;4877036;29;20238;-86
2024/03/07 07:17:31;;;;;;;45.10;29.47;;;4.90;97.10;;;;;;4881047;29;20204;-83
2024/03/07 07:19:58;;;;;;;44.43;29.17;;;4.90;97.20;;;;;;4880795;29;20289;-91
2024/03/07 07:22:26;;;;;;;42.63;30.00;;;5.10;96.90;;;;;;4880002;29;20199;-84
2024/03/07 07:24:53;;;;;;;46.40;29.60;;;5.30;96.30;;;;;;4877584;29;20634;-84
2024/03/07 07:27:20;;;;;;;43.80;28.47;;;5.20;95.90;;;;;;4874137;29;20204;-85
2024/03/07 07:29:49;;;;;;;42.07;29.83;;;5.20;95.70;;;;;;4878831;29;20210;-88
2024/03/07 07:32:16;;;;;;;44.40;29.20;;;5.00;95.70;;;;;;4875688;29;20563;-86
2024/03/07 07:34:44;;;;;;;45.90;29.77;;;4.90;96.20;;;;;;4881846;29;20228;-84
2024/03/07 07:37:10;;;;;;;44.00;29.27;;;4.80;96.50;;;;;;4880444;29;20203;-84
2024/03/07 07:39:37;;;;;;;44.30;28.77;;;4.80;96.50;;;;;;4881434;29;20203;-84
2024/03/07 07:42:05;;;;;;;43.47;29.73;;;4.70;96.60;;;;;;4881716;29;20574;-84
2024/03/07 07:44:33;;;;;;;43.93;28.93;;;4.80;96.90;;;;;;4882604;29;20216;-84
2024/03/07 07:47:01;;;;;;;43.57;27.77;;;4.80;96.20;;;;;;4881504;29;20216;-83
2024/03/07 07:49:28;;;;;;;47.80;28.60;;;4.90;95.90;;;;;;4882699;29;20204;-83
2024/03/07 07:51:55;;;;;;;45.10;29.20;;;4.80;96.40;;;;;;4881205;29;20207;-84
2024/03/07 07:54:22;;;;;;;43.60;29.77;;;4.80;96.30;;;;;;4882027;29;20214;-83
2024/03/07 07:56:49;;;;;;;39.57;27.97;;;4.80;96.40;;;;;;4880461;29;20617;-87
2024/03/07 07:59:16;;;;;;;46.07;29.90;;;4.80;96.70;;;;;;4876570;29;20236;-84
2024/03/07 08:01:43;;;;;;;45.00;30.33;;;4.90;96.30;;;;;;4878669;29;20204;-85
2024/03/07 08:04:11;;;;;;;49.73;30.53;;;4.80;96.40;;;;;;4880011;29;20222;-84
2024/03/07 08:06:38;;;;;;;47.37;29.83;;;4.80;96.80;;;;;;4876370;29;20298;-84
2024/03/07 08:09:09;;;;;;;47.07;30.27;;;4.70;96.80;;;;;;4879893;29;20211;-84
2024/03/07 08:11:36;;;;;;;45.50;29.90;;;4.80;96.80;;;;;;4873220;29;20215;-83
2024/03/07 08:14:03;;;;;;;44.43;29.37;;;4.80;96.80;;;;;;4879814;29;20263;-84
2024/03/07 08:16:30;;;;;;;47.53;30.80;;;4.80;97.00;;;;;;4878609;29;20655;-87
2024/03/07 08:18:57;;;;;;;48.10;30.63;;;4.90;96.30;;;;;;4876418;29;20212;-85
2024/03/07 08:21:25;;;;;;;43.83;28.60;;;4.90;96.20;;;;;;4879463;29;20200;-84
2024/03/07 08:23:51;;;;;;;44.03;29.43;;;5.00;96.30;;;;;;4877685;29;20208;-84
2024/03/07 08:26:18;;;;;;;45.67;29.37;;;5.20;95.50;;;;;;4879802;29;20602;-84
2024/03/07 08:28:45;;;;;;;45.27;30.20;;;5.20;95.80;;;;;;4883227;29;20202;-84
2024/03/07 08:31:12;;;;;;;49.30;29.97;;;5.20;95.70;;;;;;4880406;29;20208;-86
2024/03/07 08:33:39;;;;;;;42.58;29.90;;;5.20;96.10;;;;;;4879907;29;20200;-84
2024/03/07 08:36:09;;;;;;;45.57;29.63;;;5.20;95.60;;;;;;4881135;29;20236;-84
2024/03/07 08:38:38;;;;;;;45.13;30.27;;;5.40;95.20;;;;;;4880492;29;20659;-83
2024/03/07 08:41:05;;;;;;;42.30;29.27;;;5.30;95.10;;;;;;4879178;29;20204;-87
2024/03/07 08:43:32;;;;;;;42.57;28.80;;;5.30;95.10;;;;;;4877908;29;20235;-83
2024/03/07 08:45:58;;;;;;;42.00;28.67;;;5.40;94.70;;;;;;4873442;29;20298;-84
2024/03/07 08:48:25;;;;;;;43.67;29.23;;;5.30;95.10;;;;;;4874415;29;20268;-84
2024/03/07 08:50:52;;;;;;;44.55;29.13;;;5.30;95.10;;;;;;4879439;29;20212;-83
2024/03/07 08:53:19;;;;;;;40.28;27.77;;;5.40;95.20;;;;;;4880958;29;20286;-84
2024/03/07 08:55:47;;;;;;;43.42;27.55;;;5.50;94.60;;;;;;4880719;29;20567;-84
2024/03/07 08:58:14;;;;;;;48.78;30.70;;;5.60;95.20;;;;;;4880990;29;20234;-83
2024/03/07 09:00:41;;;;;;;49.08;28.40;;;5.60;94.80;;;;;;4881163;29;20204;-84
2024/03/07 09:03:10;;;;;;;46.13;28.48;;;5.60;94.20;;;;;;4881558;29;20306;-83
2024/03/07 09:05:37;;;;;;;45.97;28.45;;;5.50;94.40;;;;;;4881516;29;20236;-84
2024/03/07 09:08:05;;;;;;;39.47;27.02;;;5.60;95.10;;;;;;4880773;29;20215;-82
2024/03/07 09:11:00;;;;;;;43.65;28.10;;;5.90;93.70;;;;;;4881039;29;20200;-82
2024/03/07 09:13:27;;;;;;;43.58;28.00;;;6.40;93.40;;;;;;4879283;29;20232;-82
2024/03/07 09:15:53;;;;;;;38.70;26.20;;;6.60;91.80;;;;;;4876678;29;20228;-84
2024/03/07 09:18:20;;;;;;;42.35;28.52;;;6.60;91.70;;;;;;4878890;29;20204;-82
2024/03/07 09:20:48;;;;;;;43.45;27.55;;;6.60;91.50;;;;;;4876008;29;20697;-82
2024/03/07 09:23:16;;;;;;;42.35;27.10;;;6.50;91.80;;;;;;4879014;29;20195;-84
2024/03/07 09:25:43;;;;;;;42.08;26.10;;;6.60;92.10;;;;;;4875704;29;20214;-82
2024/03/07 09:28:11;;;;;;;37.45;25.90;;;6.70;91.70;;;;;;4880524;29;20207;-83
2024/03/07 09:30:39;;;;;;;39.78;26.98;;;6.60;91.20;;;;;;4880816;29;20212;-82
2024/03/07 09:33:10;;;;;;;39.13;26.27;;;6.60;91.40;;;;;;4878931;29;20204;-82
2024/03/07 09:35:37;;;;;;;34.78;24.95;;;6.60;92.10;;;;;;4877540;29;20722;-83
2024/03/07 09:38:04;;;;;;;39.08;25.85;;;6.70;91.10;;;;;;4878384;29;20211;-81
2024/03/07 09:40:31;;;;;;;36.45;25.50;;;6.70;91.40;;;;;;4878437;29;20208;-82
2024/03/07 09:43:00;;;;;;;36.67;26.58;;;6.70;91.10;;;;;;4879171;29;20207;-83
2024/03/07 09:45:31;;;;;;;35.58;25.10;;;6.70;91.80;;;;;;4878010;29;20290;-83
2024/03/07 09:47:58;;;;;;;36.65;26.33;;;6.80;91.70;;;;;;4875880;29;20212;-84
2024/03/07 09:50:29;;;;;;;39.80;26.55;;;6.60;91.70;;;;;;4874148;29;20855;-83
2024/03/07 09:53:00;;;;;;;39.30;26.25;;;6.60;92.30;;;;;;4876919;29;20219;-83
2024/03/07 09:55:27;;;;;;;36.55;25.73;;;6.80;91.30;;;;;;4880107;29;20220;-83
2024/03/07 09:58:01;;;;;;;37.65;25.23;;;6.80;91.60;;;;;;4880104;29;20255;-84
2024/03/07 10:00:29;;;;;;;34.75;25.98;;;7.00;91.70;;;;;;4879344;29;20284;-86
2024/03/07 10:02:59;;;;;;;40.55;25.83;;;7.20;91.30;;;;;;4862336;29;20579;-86
2024/03/07 10:05:29;;;;;;;41.03;25.55;;;7.20;90.10;;;;;;4878287;29;20218;-88
2024/03/07 10:07:56;;;;;;;36.13;25.65;;;7.20;90.60;;;;;;4877726;29;20298;-86
2024/03/07 10:10:23;;;;;;;36.00;25.95;;;7.10;90.60;;;;;;4870245;29;20208;-87
2024/03/07 10:12:52;;;;;;;40.20;26.90;;;7.00;90.70;;;;;;4879724;29;20207;-87
2024/03/07 10:15:19;;;;;;;42.40;26.92;;;6.80;90.80;;;;;;4880009;29;20212;-87
2024/03/07 10:17:48;;;;;;;43.78;27.13;;;6.50;92.20;;;;;;4880579;29;20192;-87
2024/03/07 10:20:20;;;;;;;38.92;25.85;;;6.50;92.30;;;;;;4880679;29;20208;-87
2024/03/07 10:22:48;;;;;;;37.80;27.08;;;6.60;92.30;;;;;;4884706;29;20203;-86
2024/03/07 10:25:18;;;;;;;38.97;26.33;;;6.60;92.60;;;;;;4882161;29;20652;-85
2024/03/07 10:27:48;;;;;;;38.17;27.08;;;6.70;92.30;;;;;;4880079;29;20253;-86
2024/03/07 10:30:20;;;;;;;34.47;24.40;;;6.70;92.20;;;;;;4858039;29;20560;-87
2024/03/07 10:32:51;;;;;;;33.90;24.33;;;6.90;91.90;;;;;;4880363;29;20210;-86
2024/03/07 10:35:24;;;;;;;40.08;25.60;;;7.10;91.40;;;;;;4880171;29;20231;-86
2024/03/07 10:37:51;;;;;;;35.42;23.67;;;6.90;91.70;;;;;;4879754;29;20203;-86
2024/03/07 10:40:17;;;;;;;38.30;26.08;;;6.90;91.60;;;;;;4878345;29;20200;-86
2024/03/07 10:42:51;;;;;;;35.63;25.27;;;7.00;91.70;;;;;;4861650;29;20211;-85
2024/03/07 10:45:21;;;;;;;31.13;23.13;;;6.90;91.80;;;;;;4877091;29;20737;-86
2024/03/07 10:47:56;;;;;;;34.90;24.30;;;7.00;91.40;;;;;;4881343;29;20212;-86
2024/03/07 10:50:39;;;;;;;33.83;23.67;;;7.10;91.30;;;;;;4860072;29;20207;-85
2024/03/07 10:53:11;;;;;;;33.50;22.60;;;7.40;90.10;;;;;;4874073;29;20628;-87
2024/03/07 10:55:45;;;;;;;37.60;21.95;;;7.40;87.80;;;;;;4877743;29;20291;-87
2024/03/07 10:58:31;;;;;;;32.75;22.13;;;7.30;87.10;;;;;;4878732;29;20317;-88
2024/03/07 11:01:03;;;;;;;32.08;21.45;;;7.10;87.00;;;;;;4877591;29;20208;-85
2024/03/07 11:03:33;;;;;;;33.33;21.13;;;7.50;84.00;;;;;;4880353;29;20251;-87
2024/03/07 11:06:00;;;;;;;29.55;21.17;;;7.90;83.10;;;;;;4886377;29;20275;-85
2024/03/07 11:08:28;;;;;;;30.85;21.10;;;8.10;76.60;;;;;;4881432;29;20215;-84
2024/03/07 11:10:54;;;;;;;31.40;20.65;;;8.40;73.30;;;;;;4883880;29;20598;-85
2024/03/07 11:13:21;;;;;;;32.22;21.58;;;8.50;67.80;;;;;;4881333;29;20208;-84
2024/03/07 11:15:51;;;;;;;30.85;21.40;;;8.40;67.50;;;;;;4883537;29;20203;-84
2024/03/07 11:18:18;;;;;;;30.60;22.40;;;8.30;72.30;;;;;;4881787;29;20208;-82
2024/03/07 11:20:47;;;;;;;29.92;22.27;;;8.40;71.00;;;;;;4876958;29;20200;-82
2024/03/07 11:23:30;;;;;;;43.45;31.63;;;8.50;68.60;;;;;;4867555;29;20208;-83
2024/03/07 11:26:07;;;;;;;30.80;21.13;;;8.80;70.10;;;;;;4869453;29;20204;-84
2024/03/07 11:28:37;;;;;;;26.67;19.65;;;9.40;64.50;;;;;;4876571;29;20206;-85
2024/03/07 11:31:14;;;;;;;29.33;21.00;;;10.00;53.10;;;;;;4874431;29;20204;-86
2024/03/07 11:33:45;;;;;;;28.40;20.65;;;10.30;45.00;;;;;;4880400;29;20666;-86
2024/03/07 11:36:13;;;;;;;26.67;20.40;;;10.10;46.90;;;;;;4894090;29;20219;-86
2024/03/07 11:38:46;;;;;;;30.88;21.75;;;10.20;47.00;;;;;;4861333;29;20211;-85
2024/03/07 11:41:14;;;;;;;32.28;22.23;;;9.90;49.40;;;;;;4880086;29;20200;-84
2024/03/07 11:43:43;;;;;;;29.73;22.50;;;9.70;48.10;;;;;;4876631;29;20204;-84
2024/03/07 11:46:11;;;;;;;33.67;23.15;;;9.50;50.20;;;;;;4880701;29;20294;-84
2024/03/07 11:48:42;;;;;;;31.17;22.15;;;9.30;52.50;;;;;;4872770;29;20201;-86
2024/03/07 11:51:13;;;;;;;30.52;21.75;;;9.10;56.00;;;;;;4884322;29;20290;-84
2024/03/07 11:53:41;;;;;;;29.85;20.98;;;8.80;60.70;;;;;;4879791;29;20207;-85
2024/03/07 11:56:16;;;;;;;28.38;20.38;;;9.00;58.00;;;;;;4879726;29;20315;-84
2024/03/07 11:58:44;;;;;;;28.50;20.25;;;9.10;56.20;;;;;;4876316;29;20294;-84
2024/03/07 12:01:13;;;;;;;27.70;19.92;;;9.20;56.30;;;;;;4880162;29;20286;-84
2024/03/07 12:03:40;;;;;;;30.23;20.70;;;9.30;54.20;;;;;;4874368;29;20718;-84
2024/03/07 12:06:10;;;;;;;28.75;19.50;;;9.40;51.90;;;;;;4887020;29;20208;-84
2024/03/07 12:08:37;;;;;;;29.35;20.23;;;9.40;54.30;;;;;;4880150;29;20262;-84
2024/03/07 12:11:05;;;;;;;28.15;20.17;;;9.40;48.30;;;;;;4881951;29;20328;-85
2024/03/07 12:13:32;;;;;;;27.92;19.30;;;9.40;50.10;;;;;;4876627;29;20574;-84
2024/03/07 12:15:59;;;;;;;28.05;19.85;;;9.40;51.60;;;;;;4879195;29;20598;-84
2024/03/07 12:18:27;;;;;;;30.45;20.48;;;9.30;50.70;;;;;;4880110;29;20211;-83
2024/03/07 12:20:54;;;;;;;28.27;20.00;;;9.10;52.10;;;;;;4879834;29;20282;-84
2024/03/07 12:23:25;;;;;;;34.63;20.95;;;9.10;47.60;;;;;;4877803;29;20280;-84
2024/03/07 12:26:01;;;;;;;31.90;22.20;;;8.90;48.90;;;;;;4879322;29;20561;-85
2024/03/07 12:28:33;;;;;;;33.67;22.20;;;8.70;54.20;;;;;;4878082;29;20646;-84
2024/03/07 12:31:02;;;;;;;34.58;22.38;;;8.50;57.00;;;;;;4880991;29;20204;-85
2024/03/07 12:33:32;;;;;;;31.55;21.92;;;8.30;57.30;;;;;;4880834;29;20202;-83
2024/03/07 12:36:05;;;;;;;30.95;21.90;;;8.10;59.40;;;;;;4878094;29;20200;-85
2024/03/07 12:38:35;;;;;;;32.42;22.38;;;7.90;62.00;;;;;;4868380;29;20235;-83
2024/03/07 12:41:07;;;;;;;35.72;21.92;;;7.80;63.60;;;;;;4877813;29;20243;-84
2024/03/07 12:43:35;;;;;;;35.30;23.05;;;7.80;65.30;;;;;;4869280;29;20239;-83
2024/03/07 12:46:04;;;;;;;35.17;22.70;;;7.80;65.20;;;;;;4878368;29;20218;-84
2024/03/07 12:48:32;;;;;;;31.15;21.40;;;7.60;72.40;;;;;;4874565;29;20203;-84